Time;durP1;ratioP1;P1;durP2;ratioP2;P2;SDS_P1;SDS_P2;PMS_P1;PMS_P2;Temp;Humidity;BMP_temperature;BMP_pressure;BME280_temperature;BME280_humidity;BME280_pressure;Samples;Min_cycle;Max_cycle;Signal;HPM_P1;HPM_P2
2021/01/26 00:02:20;;;;;;;;;;;6.40;98.30;;;;;;5072560;28;19936;-68
2021/01/26 00:04:46;;;;;;;;;;;6.40;98.40;;;;;;5072258;28;19925;-68
2021/01/26 00:07:12;;;;;;;;;;;6.40;98.20;;;;;;5074877;28;19965;-68
2021/01/26 00:09:39;;;;;;;;;;;6.40;98.10;;;;;;5076421;28;19939;-68
2021/01/26 00:12:08;;;;;;;;;;;6.40;98.10;;;;;;5076702;28;19925;-68
2021/01/26 00:14:34;;;;;;;;;;;6.40;98.20;;;;;;5076696;28;19924;-68
2021/01/26 00:17:01;;;;;;;;;;;6.40;97.70;;;;;;5075860;28;19931;-68
2021/01/26 00:19:27;;;;;;;;;;;6.40;97.60;;;;;;5067537;28;20278;-68
2021/01/26 00:21:53;;;;;;;;;;;6.40;97.50;;;;;;5075875;28;19935;-68
2021/01/26 00:24:20;;;;;;;;;;;6.40;97.50;;;;;;5076433;28;19924;-68
2021/01/26 00:26:46;;;;;;;;;;;6.40;97.60;;;;;;5075942;28;19932;-68
2021/01/26 00:29:13;;;;;;;;;;;6.40;97.50;;;;;;5076294;28;19936;-68
2021/01/26 00:31:39;;;;;;;;;;;6.40;97.50;;;;;;5075601;28;19951;-68
2021/01/26 00:34:05;;;;;;;;;;;6.40;97.60;;;;;;5076280;28;19925;-68
2021/01/26 00:36:32;;;;;;;;;;;6.40;97.80;;;;;;5076019;28;20335;-68
2021/01/26 00:38:58;;;;;;;;;;;6.40;97.70;;;;;;5075314;28;19929;-68
2021/01/26 00:41:24;;;;;;;;;;;6.40;97.70;;;;;;5075904;28;20363;-68
2021/01/26 00:43:51;;;;;;;;;;;6.40;97.70;;;;;;5075635;28;19936;-68
2021/01/26 00:46:18;;;;;;;;;;;6.40;97.20;;;;;;5073077;28;19924;-68
2021/01/26 00:48:46;;;;;;;;;;;6.40;97.00;;;;;;5075572;28;19925;-68
2021/01/26 00:51:13;;;;;;;;;;;6.40;97.20;;;;;;5075585;28;19946;-69
2021/01/26 00:53:39;;;;;;;;;;;6.40;97.30;;;;;;5067323;28;19925;-68
2021/01/26 00:56:05;;;;;;;;;;;6.40;97.00;;;;;;5075220;28;19928;-68
2021/01/26 00:58:32;;;;;;;;;;;6.40;97.00;;;;;;5075758;28;19950;-68
2021/01/26 01:00:58;;;;;;;;;;;6.40;97.20;;;;;;5075267;28;19939;-69
2021/01/26 01:03:25;;;;;;;;;;;6.40;97.20;;;;;;5075811;28;19924;-69
2021/01/26 01:05:51;;;;;;;;;;;6.40;97.20;;;;;;5075107;28;19948;-68
2021/01/26 01:08:18;;;;;;;;;;;6.40;97.10;;;;;;5075703;28;19935;-68
2021/01/26 01:10:44;;;;;;;;;;;6.40;97.00;;;;;;5074954;28;19924;-68
2021/01/26 01:13:11;;;;;;;;;;;6.40;96.60;;;;;;5075710;28;19924;-69
2021/01/26 01:15:38;;;;;;;;;;;6.40;96.40;;;;;;5077259;28;19924;-68
2021/01/26 01:18:05;;;;;;;;;;;6.40;96.50;;;;;;5068713;28;19948;-68
2021/01/26 01:20:32;;;;;;;;;;;6.40;96.70;;;;;;5071486;28;19928;-68
2021/01/26 01:22:58;;;;;;;;;;;6.40;96.50;;;;;;5074949;28;19936;-69
2021/01/26 01:25:24;;;;;;;;;;;6.40;96.70;;;;;;5074965;28;19924;-69
2021/01/26 01:27:51;;;;;;;;;;;6.40;96.70;;;;;;5075055;28;19928;-69
2021/01/26 01:30:19;;;;;;;;;;;6.40;97.00;;;;;;5075045;28;20016;-69
2021/01/26 01:32:46;;;;;;;;;;;6.40;97.00;;;;;;5074724;28;20323;-69
2021/01/26 01:35:12;;;;;;;;;;;6.40;97.00;;;;;;5068040;28;20062;-69
2021/01/26 01:37:39;;;;;;;;;;;6.40;96.90;;;;;;5053119;28;19939;-69
2021/01/26 01:40:07;;;;;;;;;;;6.40;96.80;;;;;;5068970;28;19924;-69
2021/01/26 01:42:33;;;;;;;;;;;6.40;96.70;;;;;;5074450;28;19928;-69
2021/01/26 01:45:00;;;;;;;;;;;6.40;96.60;;;;;;5073721;28;19930;-69
2021/01/26 01:47:28;;;;;;;;;;;6.40;96.60;;;;;;5060004;28;20015;-69
2021/01/26 01:49:55;;;;;;;;;;;6.40;96.40;;;;;;5053716;28;19978;-69
2021/01/26 01:52:23;;;;;;;;;;;6.40;96.40;;;;;;5054793;28;19932;-69
2021/01/26 01:54:52;;;;;;;;;;;6.40;96.40;;;;;;5054669;28;19925;-69
2021/01/26 01:57:21;;;;;;;;;;;6.40;96.30;;;;;;5054889;28;19929;-69
2021/01/26 01:59:48;;;;;;;;;;;6.30;96.40;;;;;;5054478;28;20017;-69
2021/01/26 02:02:16;;;;;;;;;;;6.40;96.20;;;;;;5054954;28;19924;-69
2021/01/26 02:04:42;;;;;;;;;;;6.40;96.20;;;;;;5054878;28;19925;-69
2021/01/26 02:07:08;;;;;;;;;;;6.40;96.00;;;;;;5054185;28;19990;-69
2021/01/26 02:09:36;;;;;;;;;;;6.40;95.80;;;;;;5054921;28;20015;-69
2021/01/26 02:12:03;;;;;;;;;;;6.30;95.80;;;;;;5054177;28;20039;-69
2021/01/26 02:14:30;;;;;;;;;;;6.40;95.80;;;;;;5054573;28;20011;-69
2021/01/26 02:17:01;;;;;;;;;;;6.40;95.80;;;;;;5054145;28;20035;-69
2021/01/26 02:19:46;;;;;;;;;;;6.40;95.70;;;;;;5054512;28;19925;-69
2021/01/26 02:22:27;;;;;;;;;;;6.30;95.80;;;;;;5054163;28;20787;-69
2021/01/26 02:25:12;;;;;;;;;;;6.40;95.80;;;;;;5037286;28;20367;-69
2021/01/26 02:28:09;;;;;;;;;;;6.30;95.80;;;;;;5054418;28;20015;-69
2021/01/26 02:30:50;;;;;;;;;;;6.30;95.80;;;;;;5053078;28;19925;-69
2021/01/26 02:33:48;;;;;;;;;;;6.30;95.50;;;;;;5054263;28;19935;-69
2021/01/26 02:36:29;;;;;;;;;;;6.30;95.50;;;;;;5054110;28;19935;-69
2021/01/26 02:39:13;;;;;;;;;;;6.30;95.50;;;;;;5043825;28;19924;-69
2021/01/26 02:41:43;;;;;;;;;;;6.30;95.70;;;;;;5073676;28;19924;-69
2021/01/26 02:44:18;;;;;;;;;;;6.30;95.70;;;;;;5074019;28;20402;-69
2021/01/26 02:46:45;;;;;;;;;;;6.20;95.40;;;;;;5073552;28;20423;-69
2021/01/26 02:49:28;;;;;;;;;;;6.20;95.50;;;;;;5073792;28;20025;-69
2021/01/26 02:52:03;;;;;;;;;;;6.20;95.50;;;;;;5073479;28;19924;-69
2021/01/26 02:54:35;;;;;;;;;;;6.20;95.50;;;;;;5057899;28;19954;-69
2021/01/26 02:57:06;;;;;;;;;;;6.20;95.50;;;;;;5053764;28;19948;-69
2021/01/26 02:59:37;;;;;;;;;;;6.20;95.50;;;;;;5053421;28;20020;-69
2021/01/26 03:02:06;;;;;;;;;;;6.20;95.40;;;;;;5053693;28;20395;-69
2021/01/26 03:04:36;;;;;;;;;;;6.20;95.30;;;;;;5053370;28;19925;-69
2021/01/26 03:07:03;;;;;;;;;;;6.20;95.40;;;;;;5053600;28;20020;-69
2021/01/26 03:09:31;;;;;;;;;;;6.10;95.30;;;;;;5053650;28;20012;-69
2021/01/26 03:12:01;;;;;;;;;;;6.10;95.30;;;;;;5053303;28;20305;-69
2021/01/26 03:14:31;;;;;;;;;;;6.10;95.30;;;;;;5053644;28;20134;-69
2021/01/26 03:17:03;;;;;;;;;;;6.10;95.30;;;;;;5053035;28;19924;-69
2021/01/26 03:19:31;;;;;;;;;;;6.10;95.30;;;;;;5053489;28;20058;-69
2021/01/26 03:21:59;;;;;;;;;;;6.10;95.30;;;;;;5053053;28;20378;-69
2021/01/26 03:24:26;;;;;;;;;;;6.10;95.20;;;;;;5053484;28;19939;-69
2021/01/26 03:26:52;;;;;;;;;;;6.10;95.20;;;;;;5052672;28;19925;-69
2021/01/26 03:29:21;;;;;;;;;;;6.00;95.20;;;;;;5053295;28;19928;-69
2021/01/26 03:31:50;;;;;;;;;;;6.00;95.20;;;;;;5052448;28;20353;-69
2021/01/26 03:34:17;;;;;;;;;;;6.10;94.90;;;;;;5053074;28;20023;-69
2021/01/26 03:36:43;;;;;;;;;;;6.10;95.00;;;;;;5052577;28;19925;-69
2021/01/26 03:39:10;;;;;;;;;;;6.00;95.00;;;;;;5061279;28;20004;-70
2021/01/26 03:41:37;;;;;;;;;;;6.00;95.00;;;;;;5072242;28;19924;-68
2021/01/26 03:44:03;;;;;;;;;;;6.00;94.70;;;;;;5073277;28;19935;-69
2021/01/26 03:46:54;;;;;;;;;;;6.10;94.50;;;;;;5066463;28;19925;-69
2021/01/26 03:49:31;;;;;;;;;;;6.00;94.50;;;;;;5052941;28;20015;-69
2021/01/26 03:52:09;;;;;;;;;;;6.00;94.50;;;;;;5052105;28;20201;-69
2021/01/26 03:54:36;;;;;;;;;;;5.90;94.70;;;;;;5065323;28;19924;-69
2021/01/26 03:57:21;;;;;;;;;;;5.90;94.50;;;;;;5072927;28;20296;-69
2021/01/26 03:59:53;;;;;;;;;;;5.90;94.50;;;;;;5072818;28;19990;-69
2021/01/26 04:02:24;;;;;;;;;;;5.80;94.70;;;;;;5072949;28;19993;-69
2021/01/26 04:04:53;;;;;;;;;;;5.80;94.60;;;;;;5072822;28;20082;-69
2021/01/26 04:07:23;;;;;;;;;;;5.80;94.70;;;;;;5072821;28;20007;-69
2021/01/26 04:09:52;;;;;;;;;;;5.80;94.60;;;;;;5072558;28;19925;-69
2021/01/26 04:12:21;;;;;;;;;;;5.80;94.80;;;;;;5072676;28;19932;-69
2021/01/26 04:14:50;;;;;;;;;;;5.80;94.70;;;;;;5072324;28;19924;-69
2021/01/26 04:17:17;;;;;;;;;;;5.70;94.80;;;;;;5072744;28;19942;-69
2021/01/26 04:19:54;;;;;;;;;;;5.70;94.80;;;;;;5072393;28;20311;-69
2021/01/26 04:22:21;;;;;;;;;;;5.60;94.90;;;;;;5072660;28;19925;-69
2021/01/26 04:24:47;;;;;;;;;;;5.60;94.70;;;;;;5072527;28;20011;-69
2021/01/26 04:27:14;;;;;;;;;;;5.60;94.60;;;;;;5072607;28;19935;-69
2021/01/26 04:29:40;;;;;;;;;;;5.60;94.60;;;;;;5072162;28;19938;-69
2021/01/26 04:32:07;;;;;;;;;;;5.60;94.70;;;;;;5071829;28;19947;-69
2021/01/26 04:34:34;;;;;;;;;;;5.50;94.70;;;;;;5072183;28;20062;-69
2021/01/26 04:37:01;;;;;;;;;;;5.50;95.00;;;;;;5072571;28;20019;-69
2021/01/26 04:39:27;;;;;;;;;;;5.50;95.10;;;;;;5072629;28;19924;-69
2021/01/26 04:41:56;;;;;;;;;;;5.40;95.30;;;;;;5072107;28;19925;-69
2021/01/26 04:44:33;;;;;;;;;;;5.40;95.30;;;;;;5072558;28;20310;-69
2021/01/26 04:47:06;;;;;;;;;;;5.40;95.20;;;;;;5061794;28;19925;-69
2021/01/26 04:49:36;;;;;;;;;;;5.40;95.10;;;;;;5052457;28;20005;-69
2021/01/26 04:52:07;;;;;;;;;;;5.50;95.00;;;;;;5051949;28;19931;-69
2021/01/26 04:54:40;;;;;;;;;;;5.40;95.00;;;;;;5054993;28;19937;-69
2021/01/26 04:57:11;;;;;;;;;;;5.40;95.10;;;;;;5055854;28;19935;-69
2021/01/26 04:59:42;;;;;;;;;;;5.40;95.00;;;;;;5056086;28;19924;-69
2021/01/26 05:02:24;;;;;;;;;;;5.50;95.00;;;;;;5055908;28;20976;-69
2021/01/26 05:04:53;;;;;;;;;;;5.40;94.90;;;;;;5055514;28;20390;-69
2021/01/26 05:07:23;;;;;;;;;;;5.50;94.70;;;;;;5055998;28;20321;-69
2021/01/26 05:09:53;;;;;;;;;;;5.50;94.70;;;;;;5055539;28;19925;-69
2021/01/26 05:12:22;;;;;;;;;;;5.40;94.60;;;;;;5055658;28;19933;-69
2021/01/26 05:14:50;;;;;;;;;;;5.40;94.80;;;;;;5055484;28;19928;-69
2021/01/26 05:17:18;;;;;;;;;;;5.40;94.90;;;;;;5055605;28;19925;-69
2021/01/26 05:19:46;;;;;;;;;;;5.30;94.90;;;;;;5055639;28;20270;-69
2021/01/26 05:22:17;;;;;;;;;;;5.30;94.90;;;;;;5055541;28;20023;-70
2021/01/26 05:24:46;;;;;;;;;;;5.40;94.90;;;;;;5055674;28;19933;-70
2021/01/26 05:27:13;;;;;;;;;;;5.30;94.90;;;;;;5055284;28;19991;-69
2021/01/26 05:29:41;;;;;;;;;;;5.30;94.90;;;;;;5055778;28;20066;-69
2021/01/26 05:32:09;;;;;;;;;;;5.30;94.90;;;;;;5054857;28;20442;-69
2021/01/26 05:34:37;;;;;;;;;;;5.30;94.80;;;;;;5055483;28;19925;-69
2021/01/26 05:37:05;;;;;;;;;;;5.40;94.70;;;;;;5054930;28;20367;-69
2021/01/26 05:39:34;;;;;;;;;;;5.30;94.30;;;;;;5066424;28;20011;-69
2021/01/26 05:42:01;;;;;;;;;;;5.30;94.40;;;;;;5074798;28;20007;-69
2021/01/26 05:44:27;;;;;;;;;;;5.30;94.30;;;;;;5075421;28;20019;-69
2021/01/26 05:46:54;;;;;;;;;;;5.30;94.30;;;;;;5065113;28;20011;-69
2021/01/26 05:49:34;;;;;;;;;;;5.30;94.40;;;;;;5055130;28;19935;-69
2021/01/26 05:52:00;;;;;;;;;;;5.30;94.80;;;;;;5054552;28;20367;-69
2021/01/26 05:54:28;;;;;;;;;;;5.30;94.40;;;;;;5066612;28;19930;-69
2021/01/26 05:56:56;;;;;;;;;;;5.30;94.40;;;;;;5074481;28;19934;-69
2021/01/26 05:59:30;;;;;;;;;;;5.30;94.80;;;;;;5075064;28;19928;-69
2021/01/26 06:02:09;;;;;;;;;;;5.30;94.40;;;;;;5074512;28;20340;-69
2021/01/26 06:04:37;;;;;;;;;;;5.30;94.30;;;;;;5074895;28;20011;-69
2021/01/26 06:07:03;;;;;;;;;;;5.30;94.30;;;;;;5074212;28;19924;-69
2021/01/26 06:09:33;;;;;;;;;;;5.30;94.40;;;;;;5074819;28;20058;-70
2021/01/26 06:12:07;;;;;;;;;;;5.30;94.40;;;;;;5074243;28;19931;-69
2021/01/26 06:14:35;;;;;;;;;;;5.30;94.30;;;;;;5074622;28;19935;-69
2021/01/26 06:17:05;;;;;;;;;;;5.30;94.30;;;;;;5074078;28;20371;-69
2021/01/26 06:19:31;;;;;;;;;;;5.30;94.40;;;;;;5074650;28;19925;-69
2021/01/26 06:21:58;;;;;;;;;;;5.30;94.40;;;;;;5074011;28;19928;-69
2021/01/26 06:24:25;;;;;;;;;;;5.30;94.30;;;;;;5074377;28;19931;-69
2021/01/26 06:27:01;;;;;;;;;;;5.30;94.40;;;;;;5074371;28;19963;-69
2021/01/26 06:29:31;;;;;;;;;;;5.30;94.40;;;;;;5074874;28;20542;-69
2021/01/26 06:32:05;;;;;;;;;;;5.30;94.40;;;;;;5073731;28;19924;-69
2021/01/26 06:34:50;;;;;;;;;;;5.20;94.30;;;;;;5074446;28;20007;-69
2021/01/26 06:37:36;;;;;;;;;;;5.30;94.40;;;;;;5074168;28;20344;-69
2021/01/26 06:40:10;;;;;;;;;;;5.30;94.40;;;;;;5074162;28;20369;-69
2021/01/26 06:42:44;;;;;;;;;;;5.30;94.30;;;;;;5073785;28;19924;-69
2021/01/26 06:45:15;;;;;;;;;;;5.30;94.30;;;;;;5073956;28;20015;-69
2021/01/26 06:47:59;;;;;;;;;;;5.30;94.40;;;;;;5057543;28;20019;-69
2021/01/26 06:50:30;;;;;;;;;;;5.20;94.40;;;;;;5053471;28;19924;-68
2021/01/26 06:53:01;;;;;;;;;;;5.20;94.40;;;;;;5054050;28;19982;-69
2021/01/26 06:55:32;;;;;;;;;;;5.20;94.40;;;;;;5064783;28;19935;-69
2021/01/26 06:58:19;;;;;;;;;;;5.20;94.40;;;;;;5073792;28;20023;-69
2021/01/26 07:00:49;;;;;;;;;;;5.20;94.10;;;;;;5066868;28;19935;-69
2021/01/26 07:03:30;;;;;;;;;;;5.20;94.10;;;;;;5073648;28;20058;-69
2021/01/26 07:06:02;;;;;;;;;;;5.20;94.20;;;;;;5057061;28;20007;-69
2021/01/26 07:08:35;;;;;;;;;;;5.10;94.30;;;;;;5073467;28;20680;-69
2021/01/26 07:11:09;;;;;;;;;;;5.10;94.40;;;;;;5073466;28;19935;-69
2021/01/26 07:13:39;;;;;;;;;;;5.10;94.40;;;;;;5073233;28;19924;-69
2021/01/26 07:16:14;;;;;;;;;;;5.10;94.30;;;;;;5072860;28;20031;-68
2021/01/26 07:19:01;;;;;;;;;;;5.10;94.20;;;;;;5073318;28;20011;-69
2021/01/26 07:21:35;;;;;;;;;;;5.20;94.40;;;;;;5039413;28;20015;-69
2021/01/26 07:24:10;;;;;;;;;;;5.20;94.20;;;;;;5073361;28;20044;-69
2021/01/26 07:26:45;;;;;;;;;;;5.20;94.20;;;;;;5071795;28;20023;-69
2021/01/26 07:29:30;;;;;;;;;;;5.20;94.20;;;;;;5060420;28;19935;-69
2021/01/26 07:31:58;;;;;;;;;;;5.20;94.20;;;;;;5066754;28;20007;-68
2021/01/26 07:34:28;;;;;;;;;;;5.20;94.20;;;;;;5071097;28;19938;-68
2021/01/26 07:36:58;;;;;;;;;;;5.20;94.30;;;;;;5072490;28;20004;-69
2021/01/26 07:39:28;;;;;;;;;;;5.30;94.30;;;;;;5072064;28;19925;-69
2021/01/26 07:41:55;;;;;;;;;;;5.30;94.20;;;;;;5072522;28;20326;-68
2021/01/26 07:44:26;;;;;;;;;;;5.30;94.20;;;;;;5071716;28;19934;-69
2021/01/26 07:46:54;;;;;;;;;;;5.30;94.20;;;;;;5063702;28;20104;-69
2021/01/26 07:49:24;;;;;;;;;;;5.40;93.90;;;;;;5071148;28;19995;-69
2021/01/26 07:51:54;;;;;;;;;;;5.40;93.60;;;;;;5072372;28;19928;-68
2021/01/26 07:54:26;;;;;;;;;;;5.40;93.80;;;;;;5071764;28;20270;-69
2021/01/26 07:56:53;;;;;;;;;;;5.40;93.90;;;;;;5072444;28;19924;-69
2021/01/26 07:59:23;;;;;;;;;;;5.30;93.80;;;;;;5071950;28;20370;-69
2021/01/26 08:01:52;;;;;;;;;;;5.30;93.90;;;;;;5072156;28;19924;-69
2021/01/26 08:04:19;;;;;;;;;;;5.30;93.90;;;;;;5071443;28;19934;-69
2021/01/26 08:06:49;;;;;;;;;;;5.30;94.00;;;;;;5072325;28;20007;-68
2021/01/26 08:09:19;;;;;;;;;;;5.40;94.30;;;;;;5056057;28;19928;-69
2021/01/26 08:11:57;;;;;;;;;;;5.40;93.70;;;;;;5072657;28;19925;-69
2021/01/26 08:14:30;;;;;;;;;;;5.40;93.70;;;;;;5071904;28;20015;-69
2021/01/26 08:16:57;;;;;;;;;;;5.40;93.70;;;;;;5072514;28;20286;-70
2021/01/26 08:19:25;;;;;;;;;;;5.30;93.70;;;;;;5071504;28;19939;-69
2021/01/26 08:21:53;;;;;;;;;;;5.30;93.60;;;;;;5072333;28;20007;-69
2021/01/26 08:24:34;;;;;;;;;;;5.40;93.60;;;;;;5071735;28;20240;-69
2021/01/26 08:27:19;;;;;;;;;;;5.40;93.60;;;;;;5060560;28;19928;-69
2021/01/26 08:29:54;;;;;;;;;;;5.30;93.70;;;;;;5073675;28;20359;-69
2021/01/26 08:32:41;;;;;;;;;;;5.30;93.90;;;;;;5075629;28;19924;-69
2021/01/26 08:35:08;;;;;;;;;;;5.30;94.00;;;;;;5075645;28;19930;-68
2021/01/26 08:37:44;;;;;;;;;;;5.30;93.90;;;;;;5074745;28;20346;-69
2021/01/26 08:40:11;;;;;;;;;;;5.30;94.00;;;;;;5075883;28;19999;-69
2021/01/26 08:42:55;;;;;;;;;;;5.40;94.00;;;;;;5073489;28;19928;-68
2021/01/26 08:45:36;;;;;;;;;;;5.40;94.00;;;;;;5072294;28;19946;-68
2021/01/26 08:48:05;;;;;;;;;;;5.40;93.90;;;;;;5073433;28;20394;-69
2021/01/26 08:50:33;;;;;;;;;;;5.40;93.80;;;;;;5075198;28;20693;-68
2021/01/26 08:53:18;;;;;;;;;;;5.50;94.00;;;;;;5075893;28;19928;-69
2021/01/26 08:55:45;;;;;;;;;;;5.50;93.90;;;;;;5076156;28;19930;-69
2021/01/26 08:58:12;;;;;;;;;;;5.50;93.80;;;;;;5074621;28;20351;-69
2021/01/26 09:00:40;;;;;;;;;;;5.60;93.70;;;;;;5075335;28;19934;-69
2021/01/26 09:03:25;;;;;;;;;;;5.60;93.70;;;;;;5074552;28;20410;-68
2021/01/26 09:05:56;;;;;;;;;;;5.60;93.70;;;;;;5075368;28;19924;-68
2021/01/26 09:08:40;;;;;;;;;;;5.60;93.80;;;;;;5063942;28;20373;-68
2021/01/26 09:11:08;;;;;;;;;;;5.60;93.90;;;;;;5065575;28;19924;-69
2021/01/26 09:13:34;;;;;;;;;;;5.60;94.00;;;;;;5075639;28;19924;-69
2021/01/26 09:16:03;;;;;;;;;;;5.60;94.00;;;;;;5075002;28;20365;-69
2021/01/26 09:18:30;;;;;;;;;;;5.60;94.00;;;;;;5075658;28;20012;-69
2021/01/26 09:20:59;;;;;;;;;;;5.70;94.20;;;;;;5075057;28;20007;-69
2021/01/26 09:23:25;;;;;;;;;;;5.70;94.20;;;;;;5070762;28;19925;-69
2021/01/26 09:25:52;;;;;;;;;;;5.70;94.10;;;;;;5055080;28;19925;-69
2021/01/26 09:28:19;;;;;;;;;;;5.80;94.00;;;;;;5055405;28;19936;-68
2021/01/26 09:30:47;;;;;;;;;;;5.80;94.00;;;;;;5093050;28;19995;-69
2021/01/26 09:33:18;;;;;;;;;;;5.70;94.10;;;;;;5095237;28;19924;-69
2021/01/26 09:35:46;;;;;;;;;;;5.80;94.30;;;;;;5095377;28;20053;-68
2021/01/26 09:38:14;;;;;;;;;;;5.80;94.20;;;;;;5094584;28;20010;-69
2021/01/26 09:40:41;;;;;;;;;;;5.80;94.10;;;;;;5074744;28;19924;-69
2021/01/26 09:43:13;;;;;;;;;;;5.80;93.80;;;;;;5074666;28;19929;-69
2021/01/26 09:45:39;;;;;;;;;;;5.90;93.90;;;;;;5074896;28;19925;-68
2021/01/26 09:48:06;;;;;;;;;;;5.90;94.00;;;;;;5074667;28;19925;-69
2021/01/26 09:50:32;;;;;;;;;;;5.90;94.20;;;;;;5074781;28;19928;-69
2021/01/26 09:53:01;;;;;;;;;;;5.90;94.20;;;;;;5074425;28;20259;-68
2021/01/26 09:55:28;;;;;;;;;;;5.90;94.20;;;;;;5074905;28;19925;-68
2021/01/26 09:57:56;;;;;;;;;;;6.00;94.40;;;;;;5074530;28;19925;-68
2021/01/26 10:00:23;;;;;;;;;;;6.00;94.50;;;;;;5072005;28;19932;-68
2021/01/26 10:02:53;;;;;;;;;;;6.00;94.50;;;;;;5056475;28;20391;-69
2021/01/26 10:05:21;;;;;;;;;;;6.10;94.30;;;;;;5074378;28;19924;-70
2021/01/26 10:08:02;;;;;;;;;;;6.10;94.10;;;;;;5074795;28;19935;-70
2021/01/26 10:10:30;;;;;;;;;;;6.20;94.00;;;;;;5074294;28;19928;-70
2021/01/26 10:12:56;;;;;;;;;;;6.20;94.00;;;;;;5074685;28;20321;-70
2021/01/26 10:15:34;;;;;;;;;;;6.20;94.10;;;;;;5073798;28;19931;-70
2021/01/26 10:18:08;;;;;;;;;;;6.30;93.90;;;;;;5074497;28;19924;-70
2021/01/26 10:20:37;;;;;;;;;;;6.30;93.90;;;;;;5074232;28;20703;-68
2021/01/26 10:23:06;;;;;;;;;;;6.30;94.00;;;;;;5072673;28;19924;-69
2021/01/26 10:25:36;;;;;;;;;;;6.30;93.80;;;;;;5053812;28;19928;-69
2021/01/26 10:28:07;;;;;;;;;;;6.40;94.00;;;;;;5063845;28;19955;-68
2021/01/26 10:30:39;;;;;;;;;;;6.40;93.90;;;;;;5073563;28;20026;-69
2021/01/26 10:33:05;;;;;;;;;;;6.50;94.10;;;;;;5073629;28;19928;-70
2021/01/26 10:35:32;;;;;;;;;;;6.50;94.10;;;;;;5076255;28;19924;-69
2021/01/26 10:38:18;;;;;;;;;;;6.60;93.90;;;;;;5073925;28;19928;-69
2021/01/26 10:40:45;;;;;;;;;;;6.60;93.80;;;;;;5069078;28;20011;-69
2021/01/26 10:43:18;;;;;;;;;;;6.60;93.90;;;;;;5073681;28;19973;-69
2021/01/26 10:45:46;;;;;;;;;;;6.70;94.00;;;;;;5072446;28;19931;-69
2021/01/26 10:48:16;;;;;;;;;;;6.60;93.90;;;;;;5073461;28;20016;-70
2021/01/26 10:50:42;;;;;;;;;;;6.70;94.00;;;;;;5070919;28;20015;-70
2021/01/26 10:53:09;;;;;;;;;;;6.70;94.10;;;;;;5071928;28;20003;-69
2021/01/26 10:55:35;;;;;;;;;;;6.80;93.70;;;;;;5072759;28;20019;-70
2021/01/26 10:58:02;;;;;;;;;;;6.80;93.70;;;;;;5073186;28;20003;-69
2021/01/26 11:00:28;;;;;;;;;;;6.80;93.60;;;;;;5072884;28;19986;-69
2021/01/26 11:02:58;;;;;;;;;;;6.80;93.60;;;;;;5072879;28;19925;-69
2021/01/26 11:05:25;;;;;;;;;;;6.80;93.70;;;;;;5072578;28;19932;-69
2021/01/26 11:07:51;;;;;;;;;;;6.80;93.60;;;;;;5071975;28;20347;-69
2021/01/26 11:10:17;;;;;;;;;;;6.80;93.50;;;;;;5071326;28;19928;-69
2021/01/26 11:12:44;;;;;;;;;;;6.80;93.50;;;;;;5080921;28;19943;-68
2021/01/26 11:15:13;;;;;;;;;;;6.80;94.10;;;;;;5074405;28;20409;-69
2021/01/26 11:17:39;;;;;;;;;;;6.70;93.70;;;;;;5069984;28;20019;-69
2021/01/26 11:20:06;;;;;;;;;;;6.70;93.70;;;;;;5072804;28;20057;-69
2021/01/26 11:22:33;;;;;;;;;;;6.70;93.90;;;;;;5071554;28;19924;-69
2021/01/26 11:24:59;;;;;;;;;;;6.70;94.20;;;;;;5068612;28;20007;-69
2021/01/26 11:27:25;;;;;;;;;;;6.80;94.00;;;;;;5072187;28;20037;-69
2021/01/26 11:29:52;;;;;;;;;;;6.70;94.10;;;;;;5073096;28;20007;-69
2021/01/26 11:32:19;;;;;;;;;;;6.80;94.00;;;;;;5072463;28;19924;-69
2021/01/26 11:34:46;;;;;;;;;;;6.80;93.90;;;;;;5069897;28;20007;-69
2021/01/26 11:37:12;;;;;;;;;;;6.80;93.90;;;;;;5072753;28;20392;-69
2021/01/26 11:39:39;;;;;;;;;;;6.80;94.00;;;;;;5072111;28;20077;-69
2021/01/26 11:42:05;;;;;;;;;;;6.90;93.90;;;;;;5070027;28;19924;-69
2021/01/26 11:44:31;;;;;;;;;;;6.80;94.00;;;;;;5072102;28;20007;-68
2021/01/26 11:46:57;;;;;;;;;;;6.90;93.90;;;;;;5071674;28;20012;-69
2021/01/26 11:49:28;;;;;;;;;;;6.90;93.80;;;;;;5071733;28;19935;-69
2021/01/26 11:51:55;;;;;;;;;;;6.90;93.90;;;;;;5070235;28;20921;-69
2021/01/26 11:54:21;;;;;;;;;;;6.90;93.70;;;;;;5072116;28;19932;-70
2021/01/26 11:56:47;;;;;;;;;;;6.90;93.90;;;;;;5071466;28;20432;-69
2021/01/26 11:59:13;;;;;;;;;;;6.90;93.90;;;;;;5071733;28;19924;-70
2021/01/26 12:01:39;;;;;;;;;;;6.90;94.10;;;;;;5070802;28;20019;-69
2021/01/26 12:04:06;;;;;;;;;;;7.00;94.10;;;;;;5072030;28;19924;-69
2021/01/26 12:06:33;;;;;;;;;;;7.00;94.20;;;;;;5071323;28;19999;-69
2021/01/26 12:08:59;;;;;;;;;;;7.00;94.10;;;;;;5068027;28;20015;-69
2021/01/26 12:11:26;;;;;;;;;;;7.10;93.90;;;;;;5069260;28;19964;-69
2021/01/26 12:13:52;;;;;;;;;;;7.10;93.80;;;;;;5067247;28;20275;-69
2021/01/26 12:16:18;;;;;;;;;;;7.10;93.80;;;;;;5071407;28;20011;-69
2021/01/26 12:18:44;;;;;;;;;;;7.10;93.70;;;;;;5071672;28;20282;-69
2021/01/26 12:21:11;;;;;;;;;;;7.10;93.70;;;;;;5071055;28;19999;-70
2021/01/26 12:23:38;;;;;;;;;;;7.10;93.70;;;;;;5063403;28;19973;-69
2021/01/26 12:26:07;;;;;;;;;;;7.10;93.90;;;;;;5062450;28;19999;-69
2021/01/26 12:28:33;;;;;;;;;;;7.10;94.00;;;;;;5064083;28;19932;-69
2021/01/26 12:31:00;;;;;;;;;;;7.20;94.20;;;;;;5070435;28;19946;-69
2021/01/26 12:33:26;;;;;;;;;;;7.20;94.00;;;;;;5071771;28;20464;-69
2021/01/26 12:35:52;;;;;;;;;;;7.30;94.00;;;;;;5070612;28;19935;-69
2021/01/26 12:38:18;;;;;;;;;;;7.30;93.90;;;;;;5072254;28;19924;-70
2021/01/26 12:40:45;;;;;;;;;;;7.30;93.90;;;;;;5067254;28;19929;-69
2021/01/26 12:43:12;;;;;;;;;;;7.40;93.70;;;;;;5070932;28;19925;-69
2021/01/26 12:45:38;;;;;;;;;;;7.40;93.70;;;;;;5071358;28;20011;-69
2021/01/26 12:48:05;;;;;;;;;;;7.40;93.60;;;;;;5071769;28;19925;-69
2021/01/26 12:50:33;;;;;;;;;;;7.40;93.60;;;;;;5071889;28;20350;-69
2021/01/26 12:52:59;;;;;;;;;;;7.40;93.70;;;;;;5071672;28;20049;-70
2021/01/26 12:55:25;;;;;;;;;;;7.40;93.50;;;;;;5071318;28;19932;-69
2021/01/26 12:57:52;;;;;;;;;;;7.40;93.50;;;;;;5067095;28;20423;-69
2021/01/26 13:00:20;;;;;;;;;;;7.40;93.50;;;;;;5071042;28;20050;-69
2021/01/26 13:02:46;;;;;;;;;;;7.40;93.20;;;;;;5071381;28;20015;-69
2021/01/26 13:05:13;;;;;;;;;;;7.40;92.80;;;;;;5070226;28;20016;-70
2021/01/26 13:07:39;;;;;;;;;;;7.40;92.90;;;;;;5070702;28;19931;-69
2021/01/26 13:10:06;;;;;;;;;;;7.40;93.00;;;;;;5071927;28;19935;-69
2021/01/26 13:12:33;;;;;;;;;;;7.30;93.00;;;;;;5071406;28;19935;-69
2021/01/26 13:15:00;;;;;;;;;;;7.30;93.10;;;;;;5068789;28;20388;-69
2021/01/26 13:17:26;;;;;;;;;;;7.20;93.40;;;;;;5074661;28;19928;-69
2021/01/26 13:19:52;;;;;;;;;;;7.10;93.40;;;;;;5074301;28;20043;-69
2021/01/26 13:22:19;;;;;;;;;;;7.10;93.20;;;;;;5074440;28;20356;-70
2021/01/26 13:24:45;;;;;;;;;;;7.10;93.40;;;;;;5073330;28;20405;-69
2021/01/26 13:27:12;;;;;;;;;;;7.10;93.70;;;;;;5068165;28;20403;-69
2021/01/26 13:29:38;;;;;;;;;;;7.10;93.60;;;;;;5073573;28;20020;-70
2021/01/26 13:32:07;;;;;;;;;;;7.10;93.80;;;;;;5071801;28;19930;-69
2021/01/26 13:34:33;;;;;;;;;;;7.10;93.80;;;;;;5071440;28;19928;-70
2021/01/26 13:36:59;;;;;;;;;;;7.10;93.80;;;;;;5071693;28;19931;-69
2021/01/26 13:39:25;;;;;;;;;;;7.10;94.10;;;;;;5074614;28;19931;-69
2021/01/26 13:41:55;;;;;;;;;;;7.10;93.80;;;;;;5074402;28;20023;-69
2021/01/26 13:44:22;;;;;;;;;;;7.10;93.80;;;;;;5074908;28;20271;-69
2021/01/26 13:46:48;;;;;;;;;;;7.00;93.80;;;;;;5073875;28;20324;-69
2021/01/26 13:49:16;;;;;;;;;;;7.10;93.80;;;;;;5070866;28;19924;-69
2021/01/26 13:51:42;;;;;;;;;;;7.10;94.10;;;;;;5074102;28;19954;-70
2021/01/26 13:54:09;;;;;;;;;;;7.10;94.00;;;;;;5074435;28;20027;-69
2021/01/26 13:56:35;;;;;;;;;;;7.00;94.00;;;;;;5068638;28;20082;-69
2021/01/26 13:59:01;;;;;;;;;;;7.00;93.60;;;;;;5083852;28;19933;-69
2021/01/26 14:01:27;;;;;;;;;;;7.00;93.60;;;;;;5072694;28;20042;-69
2021/01/26 14:03:54;;;;;;;;;;;7.00;93.70;;;;;;5073327;28;19924;-69
2021/01/26 14:06:22;;;;;;;;;;;7.00;93.90;;;;;;5073200;28;20023;-69
2021/01/26 14:08:48;;;;;;;;;;;7.00;94.10;;;;;;5073091;28;19931;-69
2021/01/26 14:11:14;;;;;;;;;;;7.00;94.20;;;;;;5074032;28;19947;-69
2021/01/26 14:13:41;;;;;;;;;;;7.00;94.30;;;;;;5070320;28;19924;-69
2021/01/26 14:16:09;;;;;;;;;;;7.00;94.10;;;;;;5071786;28;20003;-69
2021/01/26 14:18:35;;;;;;;;;;;7.00;94.00;;;;;;5066418;28;19931;-69
2021/01/26 14:21:01;;;;;;;;;;;7.00;93.80;;;;;;5069007;28;20007;-69
2021/01/26 14:23:28;;;;;;;;;;;7.00;93.80;;;;;;5064969;28;19935;-69
2021/01/26 14:25:54;;;;;;;;;;;7.00;93.80;;;;;;5073944;28;19928;-69
2021/01/26 14:28:20;;;;;;;;;;;7.00;93.80;;;;;;5072206;28;19935;-69
2021/01/26 14:30:47;;;;;;;;;;;7.00;93.80;;;;;;5073441;28;19958;-69
2021/01/26 14:33:14;;;;;;;;;;;7.00;93.40;;;;;;5071438;28;19932;-69
2021/01/26 14:35:40;;;;;;;;;;;7.00;93.40;;;;;;5073614;28;19924;-69
2021/01/26 14:38:07;;;;;;;;;;;7.00;93.50;;;;;;5069540;28;20289;-69
2021/01/26 14:40:34;;;;;;;;;;;7.00;93.60;;;;;;5072362;28;19931;-69
2021/01/26 14:43:00;;;;;;;;;;;7.00;93.60;;;;;;5072126;28;19952;-69
2021/01/26 14:45:26;;;;;;;;;;;7.00;93.50;;;;;;5073202;28;20007;-69